Terminal Aerodrome Forecast
Issued by NWS Upton, NY

Home | Current Version | Previous Version | Text Only | Print | Product List | Glossary On
Versions: 1 2 3 4 5 6 7 8 9 10 11 12 13 14 15 16 17 18 19 20 21 22 23 24 25 26 27 28 29 30 31 32 33 34 35 36 37 38 39 40 41 42 43 44 45
691
FTUS41 KOKX 301120
TAFJFK
TAF
KJFK 301120Z 3012/0118 05011KT P6SM BKN060
     FM301400 07010KT P6SM BKN050
     FM301600 09011KT P6SM BKN040
     FM302300 09009KT P6SM SCT015 BKN025
     FM010100 09008KT P6SM FEW008 BKN015
     FM010300 09007KT P6SM FEW003 OVC008
     FM010600 VRB04KT 4SM BR OVC004
     FM010900 VRB04KT 1/2SM -DZ FG OVC003
     FM011400 19008KT 6SM BR SKC=

USA.gov is the U.S. government's official web portal to all federal, state and local government web resources and services.